createdAt,value
2022-11-24T00:01:15.853Z,100097.63
2022-11-24T00:03:44.099Z,100098.66
2022-11-24T00:06:13.917Z,100096.63
2022-11-24T00:08:45.286Z,100098.50
2022-11-24T00:11:15.817Z,100097.63
2022-11-24T00:13:44.167Z,100093.94
2022-11-24T00:16:15.065Z,100092.28
2022-11-24T00:18:45.004Z,100092.28
2022-11-24T00:21:13.391Z,100085.22
2022-11-24T00:23:41.618Z,100094.94
2022-11-24T00:26:13.712Z,100095.97
2022-11-24T00:28:43.065Z,100092.28
2022-11-24T00:31:18.188Z,100093.13
2022-11-24T00:33:46.584Z,100098.50
2022-11-24T00:36:15.392Z,100096.13
2022-11-24T00:38:43.809Z,100094.06
2022-11-24T00:41:13.815Z,100099.31
2022-11-24T00:43:41.880Z,100099.31
2022-11-24T00:46:10.155Z,100097.63
2022-11-24T00:48:38.504Z,100092.28
2022-11-24T00:51:09.104Z,100099.31
2022-11-24T00:53:37.527Z,100097.63
2022-11-24T00:56:05.960Z,100103.00
2022-11-24T00:58:36.204Z,100100.31
2022-11-24T01:01:08.334Z,100101.31
2022-11-24T01:03:36.491Z,100098.50
2022-11-24T01:06:05.796Z,100103.84
2022-11-24T01:08:34.078Z,100103.84
2022-11-24T01:11:14.221Z,100096.63
2022-11-24T01:13:45.137Z,100097.63
2022-11-24T01:16:18.027Z,100085.53
2022-11-24T01:18:46.278Z,100103.00
2022-11-24T01:21:14.908Z,100092.59
2022-11-24T01:23:43.341Z,100106.69
2022-11-24T01:26:14.413Z,100098.97
2022-11-24T01:28:47.413Z,100094.25
2022-11-24T01:31:17.012Z,100101.31
2022-11-24T01:33:45.203Z,100100.47
2022-11-24T01:36:13.318Z,100101.47
2022-11-24T01:38:41.412Z,100104.97
2022-11-24T01:41:13.598Z,100109.38
2022-11-24T01:43:44.400Z,100097.56
2022-11-24T01:46:18.926Z,100112.06
2022-11-24T01:48:51.568Z,100116.56
2022-11-24T01:51:23.779Z,100110.34
2022-11-24T01:53:58.942Z,100112.06
2022-11-24T01:56:28.669Z,100114.91
2022-11-24T01:59:01.907Z,100093.19
2022-11-24T02:01:31.568Z,100103.31
2022-11-24T02:04:01.054Z,100106.00
2022-11-24T02:06:32.181Z,100108.69
2022-11-24T02:09:03.769Z,100111.34
2022-11-24T02:11:36.167Z,100095.19
2022-11-24T02:14:07.784Z,100105.84
2022-11-24T02:16:38.002Z,100102.31
2022-11-24T02:19:13.123Z,100107.66
2022-11-24T02:21:41.278Z,100106.69
2022-11-24T02:24:16.009Z,100109.38
2022-11-24T02:26:48.117Z,100105.84
2022-11-24T02:29:16.555Z,100111.19
2022-11-24T02:31:49.910Z,100085.09
2022-11-24T02:34:18.255Z,100105.84
2022-11-24T02:36:46.287Z,100104.97
2022-11-24T02:39:15.775Z,100090.91
2022-11-24T02:41:50.640Z,100099.63
2022-11-24T02:44:21.275Z,100106.00
2022-11-24T02:46:49.327Z,100104.47
2022-11-24T02:49:17.381Z,100110.34
2022-11-24T02:51:46.309Z,100097.94
2022-11-24T02:54:15.728Z,100103.31
2022-11-24T02:56:45.212Z,100097.94
2022-11-24T02:59:13.549Z,100091.72
2022-11-24T03:01:41.955Z,100097.94
2022-11-24T03:04:10.066Z,100093.59
2022-11-24T03:06:38.480Z,100103.31
2022-11-24T03:09:06.659Z,100112.38
2022-11-24T03:11:34.795Z,100092.91
2022-11-24T03:14:04.320Z,100098.97
2022-11-24T03:16:33.115Z,100101.63
2022-11-24T03:19:01.559Z,100062.19
2022-11-24T03:21:30.057Z,100078.34
2022-11-24T03:23:58.216Z,100113.19
2022-11-24T03:26:26.907Z,100092.59
2022-11-24T03:28:56.388Z,100107.81
2022-11-24T03:31:26.579Z,100094.22
2022-11-24T03:33:54.709Z,100101.63
2022-11-24T03:36:22.751Z,100104.97
2022-11-24T03:38:51.012Z,100110.34
2022-11-24T03:41:19.148Z,100107.00
2022-11-24T03:43:47.238Z,100114.03
2022-11-24T03:46:15.338Z,100111.34
2022-11-24T03:48:45.131Z,100119.41
2022-11-24T03:51:13.216Z,100114.03
2022-11-24T03:53:41.372Z,100121.06
2022-11-24T03:56:09.547Z,100117.56
2022-11-24T03:58:37.739Z,100124.78
2022-11-24T04:01:05.791Z,100121.06
2022-11-24T04:03:33.883Z,100130.84
2022-11-24T04:06:03.575Z,100121.06
2022-11-24T04:08:31.600Z,100097.53
2022-11-24T04:10:59.680Z,100116.56
2022-11-24T04:13:27.750Z,100084.88
2022-11-24T04:15:56.052Z,100119.41
2022-11-24T04:18:24.086Z,100120.25
2022-11-24T04:20:52.376Z,100131.81
2022-11-24T04:23:21.707Z,100126.44
2022-11-24T04:25:49.828Z,100133.81
2022-11-24T04:28:17.748Z,100135.50
2022-11-24T04:30:45.675Z,100135.50
2022-11-24T04:33:14.181Z,100125.94
2022-11-24T04:35:42.221Z,100123.09
2022-11-24T04:38:10.404Z,100130.13
2022-11-24T04:40:40.083Z,100139.84
2022-11-24T04:43:07.960Z,100125.09
2022-11-24T04:45:35.908Z,100142.53
2022-11-24T04:48:04.002Z,100133.81
2022-11-24T04:50:32.172Z,100138.19
2022-11-24T04:53:00.083Z,100139.19
2022-11-24T04:55:28.029Z,100140.88
2022-11-24T04:57:57.385Z,100139.84
2022-11-24T05:00:25.369Z,100137.16
2022-11-24T05:02:53.595Z,100149.59
2022-11-24T05:05:21.611Z,100142.53
2022-11-24T05:07:49.685Z,100144.25
2022-11-24T05:10:36.433Z,100147.91
2022-11-24T05:13:08.037Z,100158.63
2022-11-24T05:15:37.774Z,100167.69
2022-11-24T05:18:07.099Z,100173.06
2022-11-24T05:20:35.250Z,100173.06
2022-11-24T05:23:04.213Z,100177.56
2022-11-24T05:25:32.856Z,100186.63
2022-11-24T05:28:02.287Z,100185.75
2022-11-24T05:30:32.220Z,100189.44
2022-11-24T05:33:00.254Z,100190.16
2022-11-24T05:35:28.256Z,100196.66
2022-11-24T05:37:56.202Z,100196.50
2022-11-24T05:40:24.150Z,100200.03
2022-11-24T05:42:52.073Z,100203.88
2022-11-24T05:45:22.411Z,100200.19
2022-11-24T05:47:51.965Z,100166.44
2022-11-24T05:50:21.758Z,100206.25
2022-11-24T05:52:50.068Z,100213.44
2022-11-24T05:55:20.040Z,100213.44
2022-11-24T05:57:48.047Z,100210.59
2022-11-24T06:00:18.295Z,100214.28
2022-11-24T06:02:46.431Z,100214.28
2022-11-24T06:05:15.880Z,100217.78
2022-11-24T06:07:43.894Z,100219.66
2022-11-24T06:10:11.957Z,100223.31
2022-11-24T06:12:39.861Z,100218.81
2022-11-24T06:15:08.756Z,100225.03
2022-11-24T06:17:37.277Z,100225.03
2022-11-24T06:20:06.159Z,100225.03
2022-11-24T06:22:35.987Z,100226.69
2022-11-24T06:25:04.239Z,100221.34
2022-11-24T06:27:32.418Z,100221.34
2022-11-24T06:30:00.848Z,100220.47
2022-11-24T06:32:28.673Z,100222.81
2022-11-24T06:34:56.561Z,100235.06
2022-11-24T06:37:24.526Z,100230.38
2022-11-24T06:39:53.751Z,100228.69
2022-11-24T06:42:21.809Z,100229.69
2022-11-24T06:44:49.934Z,100232.06
2022-11-24T06:47:17.982Z,100219.78
2022-11-24T06:49:45.811Z,100244.78
2022-11-24T06:52:13.692Z,100243.66
2022-11-24T06:54:41.571Z,100248.16
2022-11-24T06:57:10.947Z,100251.69
2022-11-24T06:59:38.795Z,100260.56
2022-11-24T07:02:06.688Z,100267.78
2022-11-24T07:04:34.824Z,100280.34
2022-11-24T07:07:03.889Z,100267.78
2022-11-24T07:09:31.733Z,100274.97
2022-11-24T07:11:59.615Z,100275.84
2022-11-24T07:14:29.010Z,100275.84
2022-11-24T07:16:56.987Z,100269.63
2022-11-24T07:19:25.401Z,100273.97
2022-11-24T07:21:53.759Z,100270.47
2022-11-24T07:24:21.977Z,100269.75
2022-11-24T07:26:49.808Z,100276.97
2022-11-24T07:29:18.147Z,100278.53
2022-11-24T07:31:47.457Z,100290.91
2022-11-24T07:34:15.652Z,100287.38
2022-11-24T07:36:45.180Z,100298.13
2022-11-24T07:39:13.152Z,100286.56
2022-11-24T07:41:41.007Z,100291.94
2022-11-24T07:44:09.146Z,100296.44
2022-11-24T07:46:37.028Z,100292.75
2022-11-24T07:49:06.584Z,100316.22
2022-11-24T07:51:34.515Z,100314.50
2022-11-24T07:54:02.351Z,100323.25
2022-11-24T07:56:30.246Z,100330.59
2022-11-24T07:58:58.116Z,100326.94
2022-11-24T08:01:25.981Z,100326.94
2022-11-24T08:03:54.028Z,100320.72
2022-11-24T08:06:27.287Z,100323.25
2022-11-24T08:08:57.235Z,100326.09
2022-11-24T08:11:25.696Z,100289.78
2022-11-24T08:13:53.580Z,100334.00
2022-11-24T08:16:21.999Z,100334.00
2022-11-24T08:18:54.892Z,100335.00
2022-11-24T08:21:24.647Z,100346.69
2022-11-24T08:23:56.134Z,100335.97
2022-11-24T08:26:25.265Z,100339.66
2022-11-24T08:28:56.243Z,100350.38
2022-11-24T08:31:24.983Z,100333.22
2022-11-24T08:33:52.939Z,100352.06
2022-11-24T08:36:20.808Z,100346.69
2022-11-24T08:38:54.726Z,100352.91
2022-11-24T08:41:22.657Z,100346.69
2022-11-24T08:43:50.555Z,100353.06
2022-11-24T08:46:20.343Z,100352.06
2022-11-24T08:48:50.159Z,100355.75
2022-11-24T08:51:21.903Z,100362.78
2022-11-24T08:53:55.422Z,100354.91
2022-11-24T08:56:23.524Z,100356.06
2022-11-24T08:58:51.504Z,100356.06
2022-11-24T09:01:19.738Z,100341.63
2022-11-24T09:03:51.026Z,100355.75
2022-11-24T09:06:22.853Z,100346.03
2022-11-24T09:08:52.691Z,100345.03
2022-11-24T09:11:20.728Z,100355.75
2022-11-24T09:13:48.572Z,100361.13
2022-11-24T09:16:20.053Z,100376.19
2022-11-24T09:18:48.585Z,100379.75
2022-11-24T09:21:18.629Z,100372.69
2022-11-24T09:23:48.494Z,100366.47
2022-11-24T09:26:20.550Z,100378.88
2022-11-24T09:28:48.891Z,100378.06
2022-11-24T09:31:18.893Z,100387.94
2022-11-24T09:33:47.357Z,100387.94
2022-11-24T09:36:15.791Z,100382.31
2022-11-24T09:38:43.988Z,100387.94
2022-11-24T09:41:28.102Z,100398.97
2022-11-24T09:44:08.503Z,100377.84
2022-11-24T09:46:45.189Z,100407.00
2022-11-24T09:49:25.768Z,100404.03
2022-11-24T09:51:57.368Z,100406.72
2022-11-24T09:54:29.351Z,100406.00
2022-11-24T09:57:02.044Z,100402.34
2022-11-24T09:59:29.944Z,100400.66
2022-11-24T10:01:57.948Z,100404.19
2022-11-24T10:04:28.639Z,100395.56
2022-11-24T10:07:04.757Z,100405.03
2022-11-24T10:09:54.451Z,100406.00
2022-11-24T10:12:36.523Z,100407.00
2022-11-24T10:15:34.810Z,100408.69
2022-11-24T10:18:29.283Z,100404.34
2022-11-24T10:21:11.317Z,100400.94
2022-11-24T10:23:56.239Z,100404.34
2022-11-24T10:26:35.034Z,100401.66
2022-11-24T10:29:16.786Z,100404.63
2022-11-24T10:31:46.582Z,100404.34
2022-11-24T10:34:17.883Z,100408.84
2022-11-24T10:36:53.100Z,100410.56
2022-11-24T10:39:24.901Z,100404.34
2022-11-24T10:41:58.791Z,100404.63
2022-11-24T10:44:28.026Z,100415.91
2022-11-24T10:46:56.090Z,100405.19
2022-11-24T10:49:29.121Z,100410.56
2022-11-24T10:52:09.777Z,100411.38
2022-11-24T10:54:41.448Z,100411.38
2022-11-24T10:57:09.435Z,100416.72
2022-11-24T10:59:40.680Z,100410.56
2022-11-24T11:02:33.847Z,100420.13
2022-11-24T11:05:28.281Z,100416.72
2022-11-24T11:08:19.774Z,100411.38
2022-11-24T11:10:49.487Z,100416.72
2022-11-24T11:13:25.910Z,100422.09
2022-11-24T11:15:55.483Z,100411.66
2022-11-24T11:18:26.593Z,100404.34
2022-11-24T11:20:56.600Z,100410.84
2022-11-24T11:23:28.706Z,100413.22
2022-11-24T11:26:19.377Z,100406.00
2022-11-24T11:34:53.126Z,100430.44
2022-11-24T11:37:23.247Z,100422.41
2022-11-24T11:39:52.854Z,100427.75
2022-11-24T11:43:00.063Z,100438.50
2022-11-24T11:45:18.262Z,100438.50
2022-11-24T11:47:53.806Z,100443.84
2022-11-24T11:50:26.922Z,100436.81
2022-11-24T11:53:11.405Z,100438.50
2022-11-24T11:55:50.216Z,100443.84
2022-11-24T11:58:48.091Z,100443.84
2022-11-24T12:01:31.075Z,100450.94
2022-11-24T12:04:14.601Z,100455.44
2022-11-24T12:07:00.731Z,100443.84
2022-11-24T12:09:46.368Z,100458.97
2022-11-24T12:12:51.622Z,100450.94
2022-11-24T12:15:30.358Z,100452.91
2022-11-24T12:18:21.488Z,100456.28
2022-11-24T12:21:11.451Z,100456.59
2022-11-24T12:23:53.165Z,100449.22
2022-11-24T12:26:33.038Z,100459.94
2022-11-24T12:29:17.327Z,100454.59
2022-11-24T12:31:53.594Z,100450.94
2022-11-24T12:34:32.730Z,100459.94
2022-11-24T12:37:28.578Z,100456.28
2022-11-24T12:40:03.198Z,100459.94
2022-11-24T12:42:39.756Z,100465.31
2022-11-24T12:45:17.400Z,100459.94
2022-11-24T12:48:14.910Z,100389.28
2022-11-24T12:50:47.048Z,100467.03
2022-11-24T12:53:21.071Z,100464.50
2022-11-24T12:55:49.565Z,100463.34
2022-11-24T12:58:27.144Z,100467.03
2022-11-24T13:01:09.307Z,100461.66
2022-11-24T13:03:51.122Z,100461.66
2022-11-24T13:06:22.032Z,100470.69
2022-11-24T13:08:51.553Z,100460.81
2022-11-24T13:11:42.398Z,100473.22
2022-11-24T13:14:19.419Z,100467.03
2022-11-24T13:17:28.155Z,100467.03
2022-11-24T13:19:47.531Z,100470.69
2022-11-24T13:22:18.127Z,100476.91
2022-11-24T13:24:52.476Z,100481.41
2022-11-24T13:27:29.627Z,100470.69
2022-11-24T13:29:57.562Z,100467.03
2022-11-24T13:32:51.654Z,100465.31
2022-11-24T13:35:19.636Z,100463.63
2022-11-24T13:37:53.268Z,100471.53
2022-11-24T13:48:16.097Z,100485.38
2022-11-24T13:51:39.318Z,100491.44
2022-11-24T14:04:33.347Z,100514.88
2022-11-24T14:11:18.886Z,100506.13
2022-11-24T14:20:49.765Z,100507.41
2022-11-24T14:23:53.527Z,100506.41
2022-11-24T14:27:00.345Z,100526.75
2022-11-24T14:30:23.257Z,100529.44
2022-11-24T14:36:23.010Z,100537.34
2022-11-24T14:45:35.535Z,100534.66
2022-11-24T14:56:02.089Z,100546.34
2022-11-24T15:02:14.545Z,100546.66
2022-11-24T15:05:16.369Z,100556.25
2022-11-24T15:24:23.359Z,100578.53
2022-11-24T15:26:51.280Z,100573.19
2022-11-24T15:29:21.057Z,100567.00
2022-11-24T15:31:52.645Z,100578.53
2022-11-24T15:34:21.020Z,100580.25
2022-11-24T15:36:48.925Z,100587.31
2022-11-24T15:39:16.883Z,100594.34
2022-11-24T15:41:44.743Z,100588.97
2022-11-24T15:44:12.640Z,100596.06
2022-11-24T15:46:41.955Z,100594.34
2022-11-24T15:49:09.884Z,100594.91
2022-11-24T15:51:41.544Z,100599.44
2022-11-24T15:54:14.971Z,100595.19
2022-11-24T15:56:45.534Z,100603.69
2022-11-24T15:59:20.172Z,100617.22
2022-11-24T16:01:51.004Z,100620.88
2022-11-24T16:04:19.077Z,100627.09
2022-11-24T16:06:46.889Z,100543.31
2022-11-24T16:09:17.412Z,100630.66
2022-11-24T16:11:45.499Z,100633.31
2022-11-24T16:14:13.487Z,100639.50
2022-11-24T16:16:41.943Z,100640.38
2022-11-24T16:19:12.328Z,100645.75
2022-11-24T16:21:40.166Z,100640.38
2022-11-24T16:24:08.727Z,100650.25
2022-11-24T16:26:36.601Z,100651.09
2022-11-24T16:29:04.570Z,100660.16
2022-11-24T16:31:33.040Z,100658.16
2022-11-24T16:34:01.056Z,100660.84
2022-11-24T16:36:30.314Z,100661.13
2022-11-24T16:39:00.470Z,100661.84
2022-11-24T16:41:28.303Z,100654.78
2022-11-24T16:43:59.016Z,100663.50
2022-11-24T16:46:26.982Z,100668.06
2022-11-24T16:48:56.094Z,100669.88
2022-11-24T16:51:27.772Z,100674.25
2022-11-24T16:54:00.554Z,100676.25
2022-11-24T16:56:29.479Z,100677.94
2022-11-24T16:58:57.562Z,100675.25
2022-11-24T17:01:26.064Z,100668.88
2022-11-24T17:03:54.122Z,100679.59
2022-11-24T17:06:21.985Z,100680.75
2022-11-24T17:08:50.074Z,100693.31
2022-11-24T17:11:20.745Z,100694.03
2022-11-24T17:13:49.244Z,100690.63
2022-11-24T17:16:19.573Z,100701.06
2022-11-24T17:18:47.974Z,100703.06
2022-11-24T17:21:17.940Z,100706.44
2022-11-24T17:23:46.193Z,100709.13
2022-11-24T17:26:15.894Z,100701.94
2022-11-24T17:28:45.576Z,100713.53
2022-11-24T17:31:20.438Z,100705.59
2022-11-24T17:33:48.486Z,100704.75
2022-11-24T17:36:16.577Z,100696.69
2022-11-24T17:38:44.437Z,100714.34
2022-11-24T17:41:12.690Z,100718.03
2022-11-24T17:43:41.060Z,100723.38
2022-11-24T17:46:11.466Z,100717.16
2022-11-24T17:48:41.088Z,100716.06
2022-11-24T17:51:12.777Z,100713.53
2022-11-24T17:53:42.226Z,100718.88
2022-11-24T17:56:13.794Z,100719.72
2022-11-24T17:58:43.227Z,100720.84
2022-11-24T18:01:13.868Z,100721.56
2022-11-24T18:03:42.298Z,100720.56
2022-11-24T18:06:12.448Z,100725.94
2022-11-24T18:08:43.038Z,100724.25
2022-11-24T18:11:12.993Z,100732.97
2022-11-24T18:13:56.736Z,100733.97
2022-11-24T18:16:30.576Z,100703.91
2022-11-24T18:19:08.507Z,100732.97
2022-11-24T18:21:38.407Z,100736.66
2022-11-24T18:24:06.636Z,100727.63
2022-11-24T18:26:34.489Z,100725.94
2022-11-24T18:29:02.517Z,100732.97
2022-11-24T18:31:34.249Z,100738.06
2022-11-24T18:34:02.885Z,100731.88
2022-11-24T18:36:31.356Z,100731.88
2022-11-24T18:39:01.110Z,100726.50
2022-11-24T18:41:28.988Z,100730.00
2022-11-24T18:43:56.872Z,100722.25
2022-11-24T18:46:25.896Z,100725.66
2022-11-24T18:48:56.199Z,100731.00
2022-11-24T18:51:24.076Z,100736.38
2022-11-24T18:53:54.471Z,100736.38
2022-11-24T18:56:22.942Z,100740.06
2022-11-24T18:58:53.706Z,100747.13
2022-11-24T19:01:24.116Z,100746.25
2022-11-24T19:03:54.499Z,100747.13
2022-11-24T19:06:28.827Z,100740.88
2022-11-24T19:08:57.565Z,100733.97
2022-11-24T19:11:28.236Z,100741.75
2022-11-24T19:13:57.125Z,100745.44
2022-11-24T19:16:26.312Z,100667.19
2022-11-24T19:18:57.267Z,100746.13
2022-11-24T19:21:27.000Z,100726.47
2022-11-24T19:23:58.548Z,100755.31
2022-11-24T19:26:29.359Z,100769.44
2022-11-24T19:28:57.264Z,100759.53
2022-11-24T19:31:25.180Z,100762.22
2022-11-24T19:33:54.733Z,100749.06
2022-11-24T19:36:23.644Z,100755.03
2022-11-24T19:38:54.921Z,100757.84
2022-11-24T19:41:25.390Z,100766.59
2022-11-24T19:43:54.802Z,100767.56
2022-11-24T19:46:26.203Z,100748.22
2022-11-24T19:48:56.295Z,100771.13
2022-11-24T19:51:26.276Z,100764.88
2022-11-24T19:53:55.591Z,100775.63
2022-11-24T19:56:25.636Z,100771.97
2022-11-24T19:58:54.534Z,100775.63
2022-11-24T20:01:25.793Z,100772.13
2022-11-24T20:03:59.098Z,100780.16
2022-11-24T20:06:28.459Z,100770.25
2022-11-24T20:08:58.692Z,100763.22
2022-11-24T20:11:26.823Z,100770.25
2022-11-24T20:13:56.028Z,100773.94
2022-11-24T20:16:28.252Z,100779.31
2022-11-24T20:18:57.446Z,100775.63
2022-11-24T20:21:28.627Z,100765.88
2022-11-24T20:24:00.419Z,100765.75
2022-11-24T20:26:30.217Z,100766.59
2022-11-24T20:28:59.391Z,100771.97
2022-11-24T20:31:29.257Z,100760.53
2022-11-24T20:33:57.583Z,100771.97
2022-11-24T20:36:26.969Z,100772.81
2022-11-24T20:38:55.201Z,100781.72
2022-11-24T20:41:27.296Z,100780.03
2022-11-24T20:43:57.538Z,100780.16
2022-11-24T20:46:27.462Z,100779.03
2022-11-24T20:48:56.365Z,100777.34
2022-11-24T20:51:27.028Z,100777.34
2022-11-24T20:53:57.317Z,100781.00
2022-11-24T20:56:29.433Z,100786.06
2022-11-24T20:58:57.682Z,100787.47
2022-11-24T21:01:27.692Z,100790.03
2022-11-24T21:03:57.405Z,100797.94
2022-11-24T21:06:25.794Z,100800.47
2022-11-24T21:08:54.655Z,100811.09
2022-11-24T21:11:25.030Z,100816.34
2022-11-24T21:13:54.573Z,100811.81
2022-11-24T21:16:24.215Z,100820.59
2022-11-24T21:18:53.985Z,100817.78
2022-11-24T21:21:24.012Z,100822.28
2022-11-24T21:23:52.199Z,100827.50
2022-11-24T21:26:20.546Z,100821.00
2022-11-24T21:28:48.747Z,100819.47
2022-11-24T21:31:20.775Z,100825.97
2022-11-24T21:33:50.628Z,100820.59
2022-11-24T21:36:20.116Z,100831.31
2022-11-24T21:38:51.999Z,100825.38
2022-11-24T21:41:20.868Z,100825.25
2022-11-24T21:43:49.985Z,100828.19
2022-11-24T21:46:19.512Z,100833.56
2022-11-24T21:48:47.458Z,100837.22
2022-11-24T21:51:17.404Z,100806.41
2022-11-24T21:53:46.608Z,100828.44
2022-11-24T21:56:17.099Z,100827.59
2022-11-24T21:58:47.354Z,100830.13
2022-11-24T22:01:16.483Z,100839.19
2022-11-24T22:03:46.122Z,100839.19
2022-11-24T22:06:14.985Z,100841.16
2022-11-24T22:08:42.863Z,100847.22
2022-11-24T22:11:13.733Z,100856.28
2022-11-24T22:13:41.764Z,100852.72
2022-11-24T22:16:11.842Z,100846.81
2022-11-24T22:18:41.334Z,100850.19
2022-11-24T22:21:13.850Z,100861.78
2022-11-24T22:23:41.728Z,100867.97
2022-11-24T22:26:13.604Z,100852.88
2022-11-24T22:28:41.924Z,100861.78
2022-11-24T22:31:12.081Z,100857.25
2022-11-24T22:33:40.214Z,100862.59
2022-11-24T22:36:08.810Z,100860.91
2022-11-24T22:38:38.967Z,100857.25
2022-11-24T22:41:08.405Z,100861.78
2022-11-24T22:43:37.693Z,100853.44
2022-11-24T22:46:06.338Z,100862.59
2022-11-24T22:48:34.466Z,100860.91
2022-11-24T22:51:06.061Z,100874.34
2022-11-24T22:53:34.571Z,100877.03
2022-11-24T22:56:04.959Z,100878.72
2022-11-24T22:58:33.432Z,100890.44
2022-11-24T23:01:05.458Z,100858.09
2022-11-24T23:03:33.759Z,100879.72
2022-11-24T23:06:01.982Z,100878.72
2022-11-24T23:08:29.947Z,100875.34
2022-11-24T23:11:04.168Z,100880.69
2022-11-24T23:13:32.450Z,100886.06
2022-11-24T23:16:04.258Z,100880.69
2022-11-24T23:18:32.640Z,100871.50
2022-11-24T23:21:06.603Z,100875.59
2022-11-24T23:23:35.015Z,100884.38
2022-11-24T23:26:05.817Z,100853.28
2022-11-24T23:28:34.157Z,100882.66
2022-11-24T23:31:02.940Z,100884.38
2022-11-24T23:33:31.673Z,100883.38
2022-11-24T23:36:02.811Z,100879.00
2022-11-24T23:38:32.838Z,100877.28
2022-11-24T23:41:04.127Z,100867.13
2022-11-24T23:43:34.100Z,100879.28
2022-11-24T23:46:06.998Z,100879.00
2022-11-24T23:48:35.624Z,100881.56
2022-11-24T23:51:08.060Z,100879.00
2022-11-24T23:53:37.263Z,100877.28
2022-11-24T23:56:06.120Z,100879.00
2022-11-24T23:58:35.773Z,100839.97
